Time,TemperatureF,DewpointF,PressureIn,WindDirection,WindDirectionDegrees,WindSpeedMPH,WindSpeedGustMPH,Humidity,HourlyPrecipIn,Conditions,Clouds,dailyrainin,SoftwareType,DateUTC
2013-10-08 00:14:00,54.9,50.8,29.71,ENE,67,1.7,-999.0,86,-99.99,,,0.00,Acu-Link.com,2013-10-08 07:14:00,
2013-10-08 00:29:00,54.5,50.4,29.71,NNE,22,2.7,-999.0,86,-99.99,,,0.00,Acu-Link.com,2013-10-08 07:29:00,
2013-10-08 00:44:00,54.5,50.4,29.71,ENE,67,2.2,-999.0,86,-99.99,,,0.00,Acu-Link.com,2013-10-08 07:44:00,
2013-10-08 00:59:00,54.7,50.6,29.71,NNW,337,2.7,-999.0,86,-99.99,,,0.00,Acu-Link.com,2013-10-08 07:59:00,
2013-10-08 01:15:00,54.5,50.4,29.71,NNW,337,3.7,-999.0,86,-99.99,,,0.00,Acu-Link.com,2013-10-08 08:15:00,
2013-10-08 01:30:00,54.5,50.4,29.71,North,0,2.7,-999.0,86,-99.99,,,0.00,Acu-Link.com,2013-10-08 08:30:00,
2013-10-08 01:46:00,54.3,50.5,29.71,SSW,202,2.7,-999.0,87,-99.99,,,0.00,Acu-Link.com,2013-10-08 08:46:00,
2013-10-08 02:01:00,54.3,50.5,29.71,West,270,2.7,-999.0,87,-99.99,,,0.00,Acu-Link.com,2013-10-08 09:01:00,
2013-10-08 02:17:00,54.1,50.6,29.71,West,270,5.3,-999.0,88,-99.99,,,0.00,Acu-Link.com,2013-10-08 09:17:00,
2013-10-08 02:32:00,54.0,50.8,29.71,ESE,112,3.7,-999.0,89,-99.99,,,0.00,Acu-Link.com,2013-10-08 09:32:00,
2013-10-08 02:47:00,53.8,50.6,29.70,West,270,2.2,-999.0,89,-99.99,,,0.00,Acu-Link.com,2013-10-08 09:47:00,
2013-10-08 03:18:00,53.6,50.4,29.69,East,90,0.0,-999.0,89,-99.99,,,0.00,Acu-Link.com,2013-10-08 10:18:00,
2013-10-08 03:33:00,53.2,50.3,29.70,NNW,337,3.7,-999.0,90,-99.99,,,0.00,Acu-Link.com,2013-10-08 10:33:00,
2013-10-08 03:48:00,53.1,50.2,29.70,NW,315,3.7,-999.0,90,-99.99,,,0.00,Acu-Link.com,2013-10-08 10:48:00,
2013-10-08 04:04:00,53.1,50.5,29.70,North,0,1.1,-999.0,91,-99.99,,,0.00,Acu-Link.com,2013-10-08 11:04:00,
2013-10-08 04:19:00,52.9,50.3,29.70,WNW,292,2.7,-999.0,91,-99.99,,,0.00,Acu-Link.com,2013-10-08 11:19:00,
2013-10-08 04:34:00,52.5,49.9,29.70,ESE,112,0.0,-999.0,91,-99.99,,,0.00,Acu-Link.com,2013-10-08 11:34:00,
2013-10-08 04:49:00,52.0,49.5,29.70,WNW,292,0.0,-999.0,91,-99.99,,,0.00,Acu-Link.com,2013-10-08 11:49:00,
2013-10-08 05:05:00,51.3,48.5,29.70,West,270,0.0,-999.0,90,-99.99,,,0.00,Acu-Link.com,2013-10-08 12:05:00,
2013-10-08 05:20:00,50.7,48.2,29.70,NNW,337,0.0,-999.0,91,-99.99,,,0.00,Acu-Link.com,2013-10-08 12:20:00,
2013-10-08 05:35:00,50.0,47.5,29.69,West,270,0.0,-999.0,91,-99.99,,,0.00,Acu-Link.com,2013-10-08 12:35:00,
2013-10-08 05:51:00,49.6,47.1,29.70,ENE,67,0.0,-999.0,91,-99.99,,,0.00,Acu-Link.com,2013-10-08 12:51:00,
2013-10-08 06:06:00,49.1,46.6,29.71,WNW,292,0.0,-999.0,91,-99.99,,,0.00,Acu-Link.com,2013-10-08 13:06:00,
2013-10-08 06:21:00,48.7,46.2,29.70,WNW,292,0.0,-999.0,91,-99.99,,,0.00,Acu-Link.com,2013-10-08 13:21:00,
2013-10-08 06:37:00,48.4,46.2,29.71,West,270,0.0,-999.0,92,-99.99,,,0.00,Acu-Link.com,2013-10-08 13:37:00,
2013-10-08 06:52:00,48.4,46.5,29.71,West,270,0.0,-999.0,93,-99.99,,,0.00,Acu-Link.com,2013-10-08 13:52:00,
2013-10-08 07:07:00,48.0,46.4,29.72,WNW,292,0.0,-999.0,94,-99.99,,,0.00,Acu-Link.com,2013-10-08 14:07:00,
2013-10-08 07:22:00,48.2,46.6,29.72,West,270,0.0,-999.0,94,-99.99,,,0.00,Acu-Link.com,2013-10-08 14:22:00,
2013-10-08 07:37:00,48.2,46.6,29.72,West,270,0.0,-999.0,94,-99.99,,,0.00,Acu-Link.com,2013-10-08 14:37:00,
2013-10-08 07:53:00,48.4,47.0,29.72,West,270,0.0,-999.0,95,-99.99,,,0.00,Acu-Link.com,2013-10-08 14:53:00,
2013-10-08 08:08:00,49.5,48.7,29.72,West,270,0.0,-999.0,97,-99.99,,,0.00,Acu-Link.com,2013-10-08 15:08:00,
2013-10-08 08:23:00,53.1,52.8,29.72,North,0,0.0,-999.0,99,-99.99,,,0.00,Acu-Link.com,2013-10-08 15:23:00,
2013-10-08 08:39:00,58.5,54.6,29.72,NNW,337,1.7,-999.0,87,-99.99,,,0.00,Acu-Link.com,2013-10-08 15:39:00,
2013-10-08 08:54:00,62.4,54.4,29.73,West,270,0.0,-999.0,75,-99.99,,,0.00,Acu-Link.com,2013-10-08 15:54:00,
2013-10-08 09:09:00,69.1,54.2,29.73,North,0,0.0,-999.0,59,-99.99,,,0.00,Acu-Link.com,2013-10-08 16:09:00,
2013-10-08 09:24:00,68.9,53.5,29.73,NW,315,0.0,-999.0,58,-99.99,,,0.00,Acu-Link.com,2013-10-08 16:24:00,
2013-10-08 09:40:00,70.0,53.1,29.73,WSW,247,0.0,-999.0,55,-99.99,,,0.00,Acu-Link.com,2013-10-08 16:40:00,
2013-10-08 09:55:00,70.3,52.9,29.73,WSW,247,0.0,-999.0,54,-99.99,,,0.00,Acu-Link.com,2013-10-08 16:55:00,
2013-10-08 10:10:00,70.3,52.3,29.73,West,270,2.7,-999.0,53,-99.99,,,0.00,Acu-Link.com,2013-10-08 17:10:00,
2013-10-08 10:26:00,70.7,52.2,29.72,South,180,1.1,-999.0,52,-99.99,,,0.00,Acu-Link.com,2013-10-08 17:26:00,
2013-10-08 10:41:00,72.7,50.7,29.72,NNW,337,2.7,-999.0,46,-99.99,,,0.00,Acu-Link.com,2013-10-08 17:41:00,
2013-10-08 10:56:00,72.5,49.9,29.72,NNE,22,1.7,-999.0,45,-99.99,,,0.00,Acu-Link.com,2013-10-08 17:56:00,
2013-10-08 11:11:00,71.2,48.2,29.72,West,270,4.7,-999.0,44,-99.99,,,0.00,Acu-Link.com,2013-10-08 18:11:00,
2013-10-08 11:27:00,73.9,48.7,29.72,West,270,2.2,-999.0,41,-99.99,,,0.00,Acu-Link.com,2013-10-08 18:27:00,
2013-10-08 11:42:00,75.2,49.2,29.71,NNE,22,4.7,-999.0,40,-99.99,,,0.00,Acu-Link.com,2013-10-08 18:42:00,
2013-10-08 11:57:00,72.0,47.0,29.70,NNW,337,2.7,-999.0,41,-99.99,,,0.00,Acu-Link.com,2013-10-08 18:57:00,
2013-10-08 12:12:00,72.0,47.6,29.70,NE,45,3.2,-999.0,42,-99.99,,,0.00,Acu-Link.com,2013-10-08 19:12:00,
2013-10-08 12:28:00,73.2,45.4,29.69,West,270,2.7,-999.0,37,-99.99,,,0.00,Acu-Link.com,2013-10-08 19:28:00,
2013-10-08 12:43:00,69.6,51.2,29.69,ESE,112,3.7,-999.0,52,-99.99,,,0.00,Acu-Link.com,2013-10-08 19:43:00,
2013-10-08 12:58:00,65.7,51.4,29.69,West,270,3.7,-999.0,60,-99.99,,,0.00,Acu-Link.com,2013-10-08 19:58:00,
2013-10-08 13:13:00,67.8,51.0,29.67,West,270,6.3,-999.0,55,-99.99,,,0.00,Acu-Link.com,2013-10-08 20:13:00,
2013-10-08 13:29:00,68.2,49.9,29.66,North,0,7.8,-999.0,52,-99.99,,,0.00,Acu-Link.com,2013-10-08 20:29:00,
2013-10-08 13:44:00,69.1,49.7,29.65,ENE,67,7.8,-999.0,50,-99.99,,,0.00,Acu-Link.com,2013-10-08 20:44:00,
2013-10-08 13:59:00,72.3,49.2,29.65,WSW,247,4.7,-999.0,44,-99.99,,,0.00,Acu-Link.com,2013-10-08 20:59:00,
2013-10-08 14:14:00,71.1,49.3,29.64,West,270,4.7,-999.0,46,-99.99,,,0.00,Acu-Link.com,2013-10-08 21:14:00,
2013-10-08 14:29:00,68.2,49.4,29.63,WSW,247,6.8,-999.0,51,-99.99,,,0.00,Acu-Link.com,2013-10-08 21:29:00,
2013-10-08 14:44:00,69.4,49.9,29.62,WNW,292,7.3,-999.0,50,-99.99,,,0.00,Acu-Link.com,2013-10-08 21:44:00,
2013-10-08 14:59:00,67.5,47.7,29.62,West,270,9.4,-999.0,49,-99.99,,,0.00,Acu-Link.com,2013-10-08 21:59:00,
2013-10-08 15:14:00,66.2,46.5,29.62,NNW,337,7.3,-999.0,49,-99.99,,,0.00,Acu-Link.com,2013-10-08 22:14:00,
2013-10-08 15:30:00,67.1,48.4,29.62,NW,315,4.7,-999.0,51,-99.99,,,0.00,Acu-Link.com,2013-10-08 22:30:00,
2013-10-08 15:45:00,66.7,48.5,29.62,NNW,337,7.8,-999.0,52,-99.99,,,0.00,Acu-Link.com,2013-10-08 22:45:00,
2013-10-08 16:00:00,67.1,48.9,29.61,North,0,3.7,-999.0,52,-99.99,,,0.00,Acu-Link.com,2013-10-08 23:00:00,
2013-10-08 16:15:00,65.8,47.7,29.61,NNE,22,8.9,-999.0,52,-99.99,,,0.00,Acu-Link.com,2013-10-08 23:15:00,
2013-10-08 16:30:00,64.8,47.8,29.60,West,270,10.4,-999.0,54,-99.99,,,0.00,Acu-Link.com,2013-10-08 23:30:00,
2013-10-08 16:46:00,65.3,48.7,29.59,WNW,292,4.2,-999.0,55,-99.99,,,0.00,Acu-Link.com,2013-10-08 23:46:00,
2013-10-08 17:01:00,65.1,49.5,29.59,NNW,337,5.8,-999.0,57,-99.99,,,0.00,Acu-Link.com,2013-10-09 00:01:00,
2013-10-08 17:16:00,63.0,48.9,29.58,SSW,202,5.3,-999.0,60,-99.99,,,0.00,Acu-Link.com,2013-10-09 00:16:00,
2013-10-08 17:32:00,60.8,49.0,29.58,West,270,5.8,-999.0,65,-99.99,,,0.00,Acu-Link.com,2013-10-09 00:32:00,
2013-10-08 17:47:00,58.8,49.0,29.58,NNE,22,7.3,-999.0,70,-99.99,,,0.00,Acu-Link.com,2013-10-09 00:47:00,
2013-10-08 18:02:00,57.6,49.4,29.57,NW,315,3.2,-999.0,74,-99.99,,,0.00,Acu-Link.com,2013-10-09 01:02:00,
2013-10-08 18:17:00,56.5,49.4,29.57,East,90,5.3,-999.0,77,-99.99,,,0.00,Acu-Link.com,2013-10-09 01:17:00,
2013-10-08 18:32:00,55.9,49.1,29.56,NNW,337,4.7,-999.0,78,-99.99,,,0.00,Acu-Link.com,2013-10-09 01:32:00,
2013-10-08 18:47:00,55.6,49.2,29.56,SE,135,2.2,-999.0,79,-99.99,,,0.00,Acu-Link.com,2013-10-09 01:47:00,
2013-10-08 19:02:00,55.0,49.3,29.57,South,180,1.7,-999.0,81,-99.99,,,0.00,Acu-Link.com,2013-10-09 02:02:00,
2013-10-08 19:18:00,54.7,49.6,29.56,WSW,247,2.7,-999.0,83,-99.99,,,0.00,Acu-Link.com,2013-10-09 02:18:00,
2013-10-08 19:33:00,54.7,50.0,29.55,SE,135,3.2,-999.0,84,-99.99,,,0.00,Acu-Link.com,2013-10-09 02:33:00,
2013-10-08 19:48:00,54.5,50.1,29.55,NE,45,1.1,-999.0,85,-99.99,,,0.00,Acu-Link.com,2013-10-09 02:48:00,
2013-10-08 20:04:00,54.7,50.0,29.55,North,0,2.7,-999.0,84,-99.99,,,0.00,Acu-Link.com,2013-10-09 03:04:00,
2013-10-08 20:19:00,54.7,49.6,29.55,NNE,22,1.1,-999.0,83,-99.99,,,0.00,Acu-Link.com,2013-10-09 03:19:00,
2013-10-08 20:34:00,54.7,49.6,29.55,NNW,337,0.0,-999.0,83,-99.99,,,0.00,Acu-Link.com,2013-10-09 03:34:00,
2013-10-08 20:50:00,54.5,49.4,29.55,WNW,292,3.2,-999.0,83,-99.99,,,0.00,Acu-Link.com,2013-10-09 03:50:00,
2013-10-08 21:05:00,54.0,49.3,29.56,NNE,22,0.0,-999.0,84,-99.99,,,0.00,Acu-Link.com,2013-10-09 04:05:00,
2013-10-08 21:20:00,54.0,49.9,29.56,East,90,0.0,-999.0,86,-99.99,,,0.00,Acu-Link.com,2013-10-09 04:20:00,
2013-10-08 21:35:00,53.6,49.5,29.56,NW,315,0.0,-999.0,86,-99.99,,,0.00,Acu-Link.com,2013-10-09 04:35:00,
2013-10-08 21:51:00,53.4,49.9,29.56,West,270,1.7,-999.0,88,-99.99,,,0.00,Acu-Link.com,2013-10-09 04:51:00,
2013-10-08 22:06:00,53.4,49.9,29.56,NNW,337,0.0,-999.0,88,-99.99,,,0.00,Acu-Link.com,2013-10-09 05:06:00,
2013-10-08 22:22:00,53.2,49.7,29.56,SE,135,0.0,-999.0,88,-99.99,,,0.00,Acu-Link.com,2013-10-09 05:22:00,
2013-10-08 22:37:00,52.9,49.1,29.55,East,90,0.0,-999.0,87,-99.99,,,0.00,Acu-Link.com,2013-10-09 05:37:00,
2013-10-08 22:53:00,52.3,48.5,29.55,NNW,337,0.0,-999.0,87,-99.99,,,0.00,Acu-Link.com,2013-10-09 05:53:00,
2013-10-08 23:08:00,52.2,48.4,29.56,NNW,337,0.0,-999.0,87,-99.99,,,0.00,Acu-Link.com,2013-10-09 06:08:00,
2013-10-08 23:23:00,51.8,48.1,29.55,WSW,247,0.0,-999.0,87,-99.99,,,0.00,Acu-Link.com,2013-10-09 06:23:00,
2013-10-08 23:39:00,51.4,48.0,29.55,West,270,0.0,-999.0,88,-99.99,,,0.00,Acu-Link.com,2013-10-09 06:39:00,
2013-10-08 23:54:00,51.3,49.1,29.55,NNW,337,2.7,-999.0,92,-99.99,,,0.00,Acu-Link.com,2013-10-09 06:54:00,